createdAt,value
2018-05-26T00:02:07.769Z,19.50
2018-05-26T00:07:11.006Z,19.60
2018-05-26T00:12:13.526Z,19.60
2018-05-26T00:17:15.966Z,19.60
2018-05-26T00:22:19.298Z,19.60
2018-05-26T00:27:22.714Z,19.50
2018-05-26T00:32:25.197Z,19.50
2018-05-26T00:37:27.722Z,19.50
2018-05-26T00:42:31.579Z,19.40
2018-05-26T00:47:34.414Z,19.30
2018-05-26T00:52:37.647Z,19.10
2018-05-26T00:57:40.103Z,19.10
2018-05-26T01:02:42.619Z,19.10
2018-05-26T01:07:45.565Z,19.00
2018-05-26T01:12:48.030Z,19.00
2018-05-26T01:17:57.771Z,19.00
2018-05-26T01:23:01.082Z,18.90
2018-05-26T01:28:04.363Z,18.90
2018-05-26T01:33:06.830Z,18.90
2018-05-26T01:38:09.345Z,18.80
2018-05-26T01:43:11.793Z,18.70
2018-05-26T01:48:14.277Z,18.60
2018-05-26T01:53:16.742Z,18.60
2018-05-26T01:58:20.032Z,18.30
2018-05-26T02:03:22.502Z,18.30
2018-05-26T02:08:25.141Z,18.30
2018-05-26T02:13:27.615Z,18.20
2018-05-26T02:18:30.066Z,18.10
2018-05-26T02:23:32.532Z,18.10
2018-05-26T02:28:35.763Z,18.00
2018-05-26T02:33:38.272Z,17.90
2018-05-26T02:38:40.688Z,17.90
2018-05-26T02:43:43.157Z,17.80
2018-05-26T02:48:45.613Z,17.70
2018-05-26T02:53:48.923Z,17.60
2018-05-26T02:58:52.127Z,17.60
2018-05-26T03:03:54.849Z,17.50
2018-05-26T03:09:03.066Z,17.50
2018-05-26T03:14:12.109Z,17.40
2018-05-26T03:19:15.337Z,17.40
2018-05-26T03:24:17.778Z,17.30
2018-05-26T03:29:20.229Z,17.40
2018-05-26T03:34:22.693Z,17.40
2018-05-26T03:39:25.983Z,17.50
2018-05-26T03:44:29.201Z,17.40
2018-05-26T03:49:31.663Z,17.40
2018-05-26T03:54:46.078Z,17.40
2018-05-26T04:00:10.419Z,17.20
2018-05-26T04:05:12.953Z,17.30
2018-05-26T04:10:15.426Z,17.20
2018-05-26T04:15:18.683Z,17.20
2018-05-26T04:20:22.793Z,17.50
2018-05-26T04:25:26.021Z,17.80
2018-05-26T04:30:29.367Z,17.90
2018-05-26T04:35:33.447Z,17.90
2018-05-26T04:40:35.964Z,18.10
2018-05-26T04:45:39.317Z,18.50
2018-05-26T04:50:41.765Z,18.40
2018-05-26T04:55:44.984Z,18.90
2018-05-26T05:00:48.204Z,19.20
2018-05-26T05:05:50.663Z,19.20
2018-05-26T05:10:53.129Z,19.50
2018-05-26T05:15:55.583Z,19.90
2018-05-26T05:20:58.053Z,20.10
2018-05-26T05:26:01.282Z,20.60
2018-05-26T05:31:05.070Z,20.60
2018-05-26T05:36:07.511Z,21.00
2018-05-26T05:41:10.950Z,21.30
2018-05-26T05:46:13.504Z,21.50
2018-05-26T05:51:17.722Z,22.00
2018-05-26T05:56:21.001Z,22.10
2018-05-26T06:01:32.252Z,22.00
2018-05-26T06:06:34.716Z,22.20
2018-05-26T06:11:37.152Z,22.40
2018-05-26T06:16:59.540Z,22.50
2018-05-26T06:22:02.106Z,22.70
2018-05-26T06:27:04.642Z,23.00
2018-05-26T06:32:07.085Z,23.20
2018-05-26T06:37:09.552Z,23.40
2018-05-26T06:42:12.793Z,23.70
2018-05-26T06:47:15.291Z,23.60
2018-05-26T06:52:17.762Z,23.80
2018-05-26T06:57:20.289Z,24.00
2018-05-26T07:02:22.812Z,24.20
2018-05-26T07:07:25.324Z,24.30
2018-05-26T07:12:29.063Z,24.40
2018-05-26T07:17:35.270Z,24.60
2018-05-26T07:22:38.511Z,24.50
2018-05-26T07:27:41.939Z,24.80
2018-05-26T07:32:44.466Z,24.90
2018-05-26T07:37:48.226Z,25.10
2018-05-26T07:42:50.777Z,25.20
2018-05-26T07:47:54.032Z,25.50
2018-05-26T07:52:56.576Z,25.40
2018-05-26T07:57:59.831Z,25.60
2018-05-26T08:03:02.348Z,25.70
2018-05-26T08:08:05.850Z,25.90
2018-05-26T08:13:30.007Z,26.00
2018-05-26T08:18:37.973Z,26.00
2018-05-26T08:23:40.435Z,25.80
2018-05-26T08:28:43.694Z,26.20
2018-05-26T08:33:46.165Z,26.30
2018-05-26T08:38:49.770Z,26.30
2018-05-26T08:43:52.227Z,26.60
2018-05-26T08:48:55.469Z,27.00
2018-05-26T08:53:58.915Z,26.90
2018-05-26T08:59:02.435Z,27.10
2018-05-26T09:04:04.946Z,27.20
2018-05-26T09:09:10.654Z,27.30
2018-05-26T09:14:13.174Z,27.30
2018-05-26T09:19:15.807Z,27.50
2018-05-26T09:24:20.978Z,27.50
2018-05-26T09:29:24.240Z,27.30
2018-05-26T09:34:29.283Z,27.30
2018-05-26T09:39:31.773Z,27.30
2018-05-26T09:44:34.315Z,27.40
2018-05-26T09:49:37.716Z,27.70
2018-05-26T09:54:40.397Z,27.70
2018-05-26T09:59:43.319Z,27.90
2018-05-26T10:04:47.658Z,28.00
2018-05-26T10:09:51.022Z,28.10
2018-05-26T10:14:54.052Z,28.00
2018-05-26T10:20:00.634Z,28.20
2018-05-26T10:25:03.465Z,28.20
2018-05-26T10:30:06.495Z,28.10
2018-05-26T10:35:10.049Z,28.10
2018-05-26T10:40:20.817Z,28.10
2018-05-26T10:45:39.458Z,28.20
2018-05-26T10:56:27.372Z,28.40
2018-05-26T11:01:30.601Z,28.40
2018-05-26T11:06:46.148Z,28.40
2018-05-26T11:11:59.506Z,28.30
2018-05-26T11:17:01.972Z,28.20
2018-05-26T11:22:04.445Z,28.40
2018-05-26T11:27:06.915Z,28.50
2018-05-26T11:32:10.135Z,28.50
2018-05-26T11:37:12.592Z,28.40
2018-05-26T11:42:39.226Z,28.30
2018-05-26T11:53:14.518Z,27.70
2018-05-26T11:58:25.924Z,27.50
2018-05-26T12:03:28.376Z,27.50
2018-05-26T12:08:30.872Z,27.60
2018-05-26T12:13:33.374Z,27.60
2018-05-26T12:18:35.812Z,27.70
2018-05-26T12:23:38.267Z,27.80
2018-05-26T12:28:40.814Z,27.70
2018-05-26T12:33:44.118Z,27.70
2018-05-26T12:44:20.431Z,27.90
2018-05-26T12:49:22.885Z,28.00
2018-05-26T12:54:25.325Z,28.00
2018-05-26T12:59:27.781Z,28.10
2018-05-26T13:04:30.246Z,28.10
2018-05-26T13:09:32.760Z,28.20
2018-05-26T13:14:35.213Z,28.20
2018-05-26T13:19:38.458Z,27.80
2018-05-26T13:24:40.954Z,27.80
2018-05-26T13:29:43.549Z,28.00
2018-05-26T13:34:45.987Z,28.10
2018-05-26T13:39:49.947Z,28.00
2018-05-26T13:44:52.435Z,28.00
2018-05-26T13:49:54.953Z,28.10
2018-05-26T13:54:57.493Z,28.10
2018-05-26T13:59:59.945Z,28.10
2018-05-26T14:05:02.407Z,28.10
2018-05-26T14:10:05.706Z,28.00
2018-05-26T14:15:08.910Z,27.90
2018-05-26T14:20:12.126Z,27.80
2018-05-26T14:25:15.475Z,27.90
2018-05-26T14:30:17.906Z,27.90
2018-05-26T14:35:20.368Z,28.00
2018-05-26T14:40:22.857Z,28.20
2018-05-26T14:45:25.323Z,28.30
2018-05-26T14:50:28.526Z,28.30
2018-05-26T14:55:32.585Z,28.10
2018-05-26T15:00:35.083Z,28.10
2018-05-26T15:05:37.537Z,28.00
2018-05-26T15:10:40.853Z,27.60
2018-05-26T15:15:44.065Z,27.70
2018-05-26T15:20:47.370Z,27.80
2018-05-26T15:25:49.806Z,27.70
2018-05-26T15:30:56.585Z,27.80
2018-05-26T15:35:59.983Z,28.00
2018-05-26T15:41:03.197Z,28.10
2018-05-26T15:46:05.649Z,28.10
2018-05-26T15:51:08.858Z,28.10
2018-05-26T15:56:11.301Z,28.10
2018-05-26T16:01:13.947Z,28.00
2018-05-26T16:06:16.437Z,27.70
2018-05-26T16:11:18.873Z,27.50
2018-05-26T16:16:21.318Z,27.40
2018-05-26T16:21:23.765Z,27.40
2018-05-26T16:26:26.355Z,27.20
2018-05-26T16:31:28.858Z,27.10
2018-05-26T16:36:31.309Z,27.10
2018-05-26T16:41:33.754Z,27.00
2018-05-26T16:46:36.235Z,27.00
2018-05-26T16:51:38.698Z,27.00
2018-05-26T16:56:41.931Z,27.00
2018-05-26T17:01:44.548Z,27.00
2018-05-26T17:06:46.973Z,27.00
2018-05-26T17:11:49.504Z,27.00
2018-05-26T17:16:51.958Z,27.00
2018-05-26T17:21:55.220Z,26.90
2018-05-26T17:26:57.664Z,26.90
2018-05-26T17:32:00.110Z,26.90
2018-05-26T17:37:02.552Z,26.90
2018-05-26T17:42:05.025Z,26.80
2018-05-26T17:47:07.480Z,26.80
2018-05-26T17:52:10.905Z,26.70
2018-05-26T17:57:13.466Z,26.60
2018-05-26T18:02:16.673Z,26.60
2018-05-26T18:07:19.902Z,26.50
2018-05-26T18:12:22.562Z,26.40
2018-05-26T18:17:25.022Z,26.40
2018-05-26T18:22:27.706Z,26.30
2018-05-26T18:27:30.162Z,26.10
2018-05-26T18:32:32.605Z,26.00
2018-05-26T18:37:35.055Z,25.80
2018-05-26T18:42:38.278Z,25.60
2018-05-26T18:47:40.725Z,25.50
2018-05-26T18:52:43.182Z,25.40
2018-05-26T18:57:45.635Z,25.30
2018-05-26T19:02:48.854Z,25.00
2018-05-26T19:07:51.306Z,25.00
2018-05-26T19:12:53.773Z,24.90
2018-05-26T19:17:56.223Z,24.70
2018-05-26T19:22:58.669Z,24.60
2018-05-26T19:28:01.133Z,24.50
2018-05-26T19:33:03.585Z,24.30
2018-05-26T19:38:06.033Z,24.20
2018-05-26T19:43:08.490Z,24.00
2018-05-26T19:48:10.939Z,23.90
2018-05-26T19:53:13.394Z,23.70
2018-05-26T19:58:15.902Z,23.50
2018-05-26T20:03:18.309Z,23.40
2018-05-26T20:08:20.761Z,23.30
2018-05-26T20:13:23.218Z,23.20
2018-05-26T20:18:25.700Z,23.00
2018-05-26T20:23:28.147Z,22.80
2018-05-26T20:28:31.359Z,22.50
2018-05-26T20:33:33.812Z,22.40
2018-05-26T20:38:36.269Z,22.30
2018-05-26T20:43:38.773Z,22.20
2018-05-26T20:48:41.173Z,21.90
2018-05-26T20:53:43.649Z,21.70
2018-05-26T20:58:46.110Z,21.50
2018-05-26T21:03:48.563Z,21.30
2018-05-26T21:08:51.765Z,21.00
2018-05-26T21:13:55.977Z,21.00
2018-05-26T21:18:58.430Z,20.90
2018-05-26T21:24:00.885Z,20.80
2018-05-26T21:29:03.341Z,20.70
2018-05-26T21:34:05.853Z,20.50
2018-05-26T21:39:09.074Z,20.10
2018-05-26T21:44:11.549Z,20.00
2018-05-26T21:49:14.774Z,19.80
2018-05-26T21:54:17.253Z,19.80
2018-05-26T21:59:19.714Z,19.70
2018-05-26T22:04:22.166Z,19.60
2018-05-26T22:09:24.622Z,19.60
2018-05-26T22:14:27.135Z,19.50
2018-05-26T22:19:30.314Z,19.20
2018-05-26T22:24:32.822Z,19.20
2018-05-26T22:29:35.282Z,19.20
2018-05-26T22:34:37.721Z,19.20
2018-05-26T22:39:40.179Z,19.30
2018-05-26T22:44:42.634Z,19.30
2018-05-26T22:49:45.846Z,19.30
2018-05-26T22:54:49.058Z,19.30
2018-05-26T22:59:51.507Z,19.30
2018-05-26T23:04:53.967Z,19.40
2018-05-26T23:09:56.425Z,19.40
2018-05-26T23:14:58.876Z,19.60
2018-05-26T23:20:01.321Z,19.70
2018-05-26T23:25:03.776Z,19.80
2018-05-26T23:30:07.293Z,19.90
2018-05-26T23:35:10.511Z,20.00
2018-05-26T23:40:12.993Z,19.90
2018-05-26T23:45:15.442Z,20.00
2018-05-26T23:50:17.893Z,20.00
2018-05-26T23:55:20.338Z,20.10
